x

Boston 16 Nm East Of Boston, Ma (44013) Wave Buoy

5:50 - Sun 4th Dec 2016 All times are EST. -5 hours from GMT.

  • Sig Wave height 3.9ft
  • Swell Direction
  • Peak Period 4s
  • Average Period 4s
  • Wind
    22mph, 27mph gusts
  • Sea Temp 50°f
  • Air Temp 37°f
  • Sea Pressure 1018.8mb
  • Boston 16 Nm East Of Boston, Ma
  • Boston 16 Nm East Of Boston, Ma

More Historic Weather Station data

Upgrade to MSW Pro to gain access to the past 30 days of data for over 8000 Wavebouys and Weather Stations around the globe.

Join Pro

Comparision Forecast

View Surf forecast
   
dim. 12/04 5:50 4ft 4s 4s 22 27 mph 1018.8mb 50f 37f
4:50 4ft 4s 4s 22 29 mph 1018.5mb 50f 37f
3:50 4ft 4s 4s 25 31 mph 1018mb 50f 38f
2:50 3.5ft 4s 4s 25 31 mph 1017.4mb 51f 37f
1:50 3.5ft 4s 4s 25 29 mph 1017mb 51f 38f
12:50 4ft 4s 4s 25 34 mph 1016.1mb 51f 39f
sam. 12/03 11:50 4.5ft 5s 4s 27 31 mph 1015.4mb 51f 40f
10:50 4ft 4s 4s 29 38 mph 1015mb 51f 40f
9:50 3.5ft 4s 4s 25 29 mph 1015.2mb 51f 41f
8:50 3.5ft 4s 4s 25 31 mph 1014.8mb 51f 41f
7:50 3.5ft 4s 4s 25 31 mph 1014.8mb 51f 42f
6:50 3.5ft 4s 4s 25 29 mph 1014.1mb 51f 43f
5:50 3.5ft 4s 4s 29 36 mph 1012.8mb 51f 44f
4:50 3.5ft 4s 4s 22 29 mph 1011.7mb 51f 44f
3:50 3.5ft 4s 4s 27 34 mph 1010.6mb 51f 45f
2:50 3.5ft 4s 4s 25 29 mph 1010mb 51f 45f
1:50 3.5ft 5s 4s 27 31 mph 1009.4mb 51f 45f
12:50 3.5ft 4s 4s 27 31 mph 1009.3mb 51f 44f
11:50 3.5ft 4s 4s 27 31 mph 1009.1mb 51f 44f
10:50 3.5ft 4s 4s 25 31 mph 1009.3mb 51f 44f
9:50 3.5ft 4s 4s 27 31 mph 1009mb 51f 43f
8:50 2.5ft 4s  -  29 38 mph 1008.4mb 51f 42f
7:50 2.5ft 4s 3s 27 31 mph 1008.2mb 51f 42f
6:50 2.5ft 4s 3s 25 29 mph 1007.4mb 51f 42f
5:50 3ft 4s 4s 22 29 mph 1006.9mb 51f 42f
4:50 3ft 4s 4s 25 31 mph 1006.3mb 51f 42f
3:50 3.5ft 4s 4s 27 36 mph 1005.6mb 51f 42f
2:50 3.5ft 4s 4s 25 29 mph 1005.7mb 51f 42f
1:50 2.5ft 4s 4s 25 29 mph 1005.6mb 51f 42f
12:50 3ft 4s 4s 27 31 mph 1004.8mb 51f 45f
ven. 12/02 11:50 2.5ft 4s 4s 25 31 mph 1004.7mb 51f 45f
10:50 2.5ft 3s 4s 22 27 mph 1005mb 51f 45f
9:50 2.5ft 3s 4s 22 27 mph 1005.1mb 51f 46f
8:50 2ft 3s 4s 22 27 mph 1005.3mb 51f 47f
7:50 2ft 11s 3s 22 27 mph 1005.7mb 51f 47f
6:50 2ft 10s 4s 18 20 mph 1006mb 51f 48f
5:50 2.5ft 3s 3s 18 22 mph 1005.9mb 51f 49f
4:50 2.5ft 4s 4s 20 25 mph 1005.8mb 51f 49f
3:50 2.5ft 4s 4s 20 25 mph 1005.3mb 51f 49f
2:50 2.5ft 4s 4s 20 25 mph 1005.1mb 51f 49f
1:50 3ft 4s 4s 22 27 mph 1005mb 51f 49f
12:50 2.5ft 11s 4s 22 25 mph 1005.2mb 51f 49f
11:50 2.5ft 4s 4s 22 25 mph 1005.6mb 51f 48f
10:50 2.5ft 10s 4s 20 25 mph 1006.2mb 51f 47f
9:50 3.5ft 10s 4s 22 27 mph 1006.8mb 51f 44f
8:50 3ft 9s 4s 22 27 mph 1006.7mb 51f 44f
7:50 2.5ft 10s 4s 20 25 mph 1006.7mb 51f 43f
6:50 2.5ft 3s 4s 20 25 mph 1006.4mb 51f 43f
5:50 3ft 3s 4s 22 27 mph 1006.2mb 51f 43f
4:50 2.5ft 4s 4s 22 27 mph 1005.5mb 51f 43f
3:50 2.5ft 3s 4s 22 27 mph 1005.1mb 51f 44f
2:50 2.5ft 4s 4s 22 27 mph 1004.8mb 51f 44f
1:50 2.5ft 3s 4s 22 27 mph 1004.4mb 51f 45f
12:50 3ft 4s 4s 22 27 mph 1004mb 51f 45f
jeu. 12/01 11:50 3.5ft 4s 4s 25 31 mph 1003.2mb 51f 47f
10:50 4ft 4s 4s 27 31 mph 1003mb 51f 47f
9:50 4.5ft 4s 4s 27 34 mph 1002.6mb 51f 47f
8:50 4ft 8s 5s 27 31 mph 1002mb 51f 49f
7:50 4.5ft 8s 5s 25 29 mph 1001.4mb 51f 49f
6:50 4.5ft 8s 5s 22 31 mph 1000.9mb 52f 50f
5:50 4.5ft 8s 5s 22 27 mph 1000.8mb 52f 51f
4:50 5ft 8s 5s 27 31 mph 1000.2mb 52f 51f
2:50 5ft 8s 5s 25 29 mph 998.2mb 52f 53f
1:50 4.5ft 7s 5s 18 22 mph 997.5mb 52f 54f
12:50 5ft 8s 6s 20 25 mph 997.1mb 52f 54f
11:50 5ft 8s 6s 18 25 mph 997.2mb 52f 53f
10:50 5ft 7s 5s 13 18 mph 997.5mb 52f 51f
9:50 5ft 8s 6s 22 25 mph 997.2mb 52f 50f
8:50 5ft 8s 5s 18 22 mph 996.1mb 52f 49f
7:50 5ft 7s 5s 16 20 mph 995.7mb 52f 50f
6:50 5.5ft 7s 5s 20 27 mph 995.1mb 52f 52f
5:50 6ft 7s 5s 20 25 mph 994.5mb 52f 58f
4:50 6.5ft 7s 5s 20 25 mph 994mb 52f 54f
3:50 7ft 7s 5s 20 25 mph 996.5mb 52f 52f
2:50 7ft 6s 5s 25 31 mph 999.1mb 52f 51f
1:50 5.5ft 6s 5s 25 29 mph 1002.1mb 52f 50f
12:50 6ft 6s 5s 25 29 mph 1003.7mb 52f 50f
mer. 11/30 11:50 5.5ft 5s 5s 25 31 mph 1006mb 52f 50f
10:50 5ft 6s 5s 25 29 mph 1007.8mb 52f 50f
9:50 5ft 5s 5s 25 27 mph 1010mb 52f 49f
8:50 4.5ft 5s 4s 25 29 mph 1010.8mb 52f 49f
7:50 4ft 4s 4s 22 29 mph 1011.7mb 52f 49f
6:50 3.5ft 4s 4s 20 25 mph 1012.5mb 52f 49f
5:50 3ft 5s 4s 20 25 mph 1013.1mb 52f 49f
4:50 2.5ft 7s 4s 18 20 mph 1014.5mb 52f 48f
3:50 2.5ft 10s 4s 16
mph
1014.1mb 52f 48f
2:50 2ft 8s 4s 13 16 mph 1014.2mb 52f 49f
1:50 2ft 7s 4s 11 13 mph 1014.3mb 52f 49f
12:50 2ft 5s 4s 16 18 mph 1013.9mb 52f 48f